Terminal Aerodrome Forecast
Issued by NWS North Platte, NE

Home | Current Version | Previous Version | Text Only | Print | Product List | Glossary On
Versions: 1 2 3 4 5 6 7 8 9 10 11 12 13 14 15 16 17 18 19 20 21 22 23 24 25 26 27 28 29 30 31
000
FTUS43 KLBF 202300 CCA
TAFLBF
TAF COR
KLBF 202348Z 2100/2124 31013KT P6SM FEW070
     FM210030 35011KT P6SM SKC
     FM210200 34004KT P6SM SKC
     FM212000 07007KT P6SM SKC=

USA.gov is the U.S. government's official web portal to all federal, state and local government web resources and services.